createdAt,value
2019-01-25T00:01:09.215Z,59.05
2019-01-25T00:03:37.551Z,61.80
2019-01-25T00:06:06.464Z,57.38
2019-01-25T00:08:34.263Z,61.50
2019-01-25T00:11:02.053Z,66.05
2019-01-25T00:13:29.799Z,60.95
2019-01-25T00:15:57.775Z,59.30
2019-01-25T00:18:26.083Z,61.18
2019-01-25T00:20:53.873Z,67.20
2019-01-25T00:23:21.540Z,61.73
2019-01-25T00:25:49.321Z,64.47
2019-01-25T00:28:17.074Z,66.15
2019-01-25T00:30:44.847Z,63.05
2019-01-25T00:33:12.508Z,70.83
2019-01-25T00:35:40.307Z,66.28
2019-01-25T00:38:08.331Z,73.40
2019-01-25T00:40:36.107Z,59.90
2019-01-25T00:43:04.152Z,69.55
2019-01-25T00:45:31.981Z,59.75
2019-01-25T00:48:00.050Z,59.35
2019-01-25T00:50:27.851Z,65.80
2019-01-25T00:52:55.610Z,61.48
2019-01-25T00:55:23.393Z,54.93
2019-01-25T00:57:51.161Z,63.00
2019-01-25T01:00:21.914Z,62.88
2019-01-25T01:02:50.049Z,61.10
2019-01-25T01:05:18.968Z,65.72
2019-01-25T01:07:47.879Z,62.40
2019-01-25T01:10:15.785Z,57.55
2019-01-25T01:12:43.734Z,57.83
2019-01-25T01:15:11.882Z,59.73
2019-01-25T01:17:39.648Z,61.20
2019-01-25T01:20:11.175Z,63.10
2019-01-25T01:22:39.584Z,63.35
2019-01-25T01:25:09.916Z,64.82
2019-01-25T01:27:37.677Z,60.33
2019-01-25T01:30:08.600Z,61.05
2019-01-25T01:32:36.636Z,60.73
2019-01-25T01:35:06.199Z,58.75
2019-01-25T01:37:34.248Z,69.47
2019-01-25T01:40:03.603Z,60.60
2019-01-25T01:42:31.674Z,68.55
2019-01-25T01:44:59.483Z,61.02
2019-01-25T01:47:27.305Z,63.28
2019-01-25T01:49:55.144Z,61.23
2019-01-25T01:52:22.799Z,57.95
2019-01-25T01:54:50.766Z,63.97
2019-01-25T01:57:18.529Z,61.88
2019-01-25T01:59:46.368Z,63.80
2019-01-25T02:02:14.348Z,62.55
2019-01-25T02:04:42.143Z,59.73
2019-01-25T02:07:09.891Z,61.30
2019-01-25T02:09:37.549Z,61.70
2019-01-25T02:12:05.329Z,58.60
2019-01-25T02:14:33.359Z,65.50
2019-01-25T02:17:01.383Z,59.98
2019-01-25T02:19:29.119Z,60.40
2019-01-25T02:21:57.177Z,61.02
2019-01-25T02:24:24.927Z,62.53
2019-01-25T02:26:52.780Z,62.60
2019-01-25T02:29:20.528Z,60.12
2019-01-25T02:31:48.487Z,59.27
2019-01-25T02:34:16.295Z,59.03
2019-01-25T02:36:44.066Z,57.00
2019-01-25T02:39:11.815Z,64.10
2019-01-25T02:41:39.763Z,62.00
2019-01-25T02:44:07.771Z,64.32
2019-01-25T02:46:35.473Z,56.45
2019-01-25T02:49:03.746Z,59.55
2019-01-25T02:51:31.743Z,64.85
2019-01-25T02:53:59.761Z,65.32
2019-01-25T02:56:27.440Z,59.90
2019-01-25T02:58:55.024Z,65.85
2019-01-25T03:01:22.693Z,63.80
2019-01-25T03:03:50.347Z,56.53
2019-01-25T03:06:18.133Z,59.25
2019-01-25T03:08:46.748Z,64.15
2019-01-25T03:11:14.461Z,60.10
2019-01-25T03:13:42.044Z,62.17
2019-01-25T03:16:10.106Z,65.17
2019-01-25T03:18:38.019Z,61.70
2019-01-25T03:21:05.801Z,64.00
2019-01-25T03:23:33.557Z,61.30
2019-01-25T03:26:01.489Z,62.60
2019-01-25T03:28:29.577Z,60.35
2019-01-25T03:30:57.342Z,63.05
2019-01-25T03:33:25.036Z,61.58
2019-01-25T03:35:52.778Z,62.90
2019-01-25T03:38:20.526Z,66.85
2019-01-25T03:40:54.987Z,58.87
2019-01-25T03:43:17.855Z,60.45
2019-01-25T03:45:45.642Z,66.00
2019-01-25T03:48:13.540Z,63.58
2019-01-25T03:50:41.309Z,60.95
2019-01-25T03:53:08.894Z,62.83
2019-01-25T03:55:36.632Z,62.00
2019-01-25T03:58:04.793Z,62.13
2019-01-25T04:00:32.570Z,65.47
2019-01-25T04:03:00.531Z,67.95
2019-01-25T04:05:28.380Z,61.50
2019-01-25T04:07:56.405Z,62.85
2019-01-25T04:10:26.417Z,66.55
2019-01-25T04:12:55.230Z,56.68
2019-01-25T04:15:29.249Z,67.78
2019-01-25T04:17:57.053Z,57.73
2019-01-25T04:20:24.906Z,67.87
2019-01-25T04:22:53.024Z,65.45
2019-01-25T04:25:21.511Z,62.88
2019-01-25T04:27:49.457Z,60.80
2019-01-25T04:30:29.042Z,62.00
2019-01-25T04:32:56.937Z,62.27
2019-01-25T04:35:24.679Z,65.20
2019-01-25T04:37:52.765Z,61.50
2019-01-25T04:40:21.223Z,62.88
2019-01-25T04:42:49.529Z,66.95
2019-01-25T04:45:18.446Z,64.30
2019-01-25T04:47:46.323Z,63.10
2019-01-25T04:50:19.553Z,58.73
2019-01-25T04:52:47.338Z,66.62
2019-01-25T04:55:24.333Z,62.75
2019-01-25T04:57:52.265Z,66.07
2019-01-25T05:00:21.016Z,60.73
2019-01-25T05:02:58.469Z,61.73
2019-01-25T05:05:26.710Z,61.53
2019-01-25T05:08:05.376Z,64.45
2019-01-25T05:10:33.115Z,59.63
2019-01-25T05:13:01.167Z,64.07
2019-01-25T05:15:28.934Z,60.00
2019-01-25T05:17:56.737Z,63.35
2019-01-25T05:20:24.764Z,63.28
2019-01-25T05:22:57.482Z,58.78
2019-01-25T05:25:26.285Z,64.05
2019-01-25T05:27:54.418Z,65.83
2019-01-25T05:30:22.350Z,63.17
2019-01-25T05:32:50.129Z,60.52
2019-01-25T05:35:17.876Z,65.37
2019-01-25T05:37:45.663Z,63.02
2019-01-25T05:40:22.260Z,63.78
2019-01-25T05:42:50.044Z,69.62
2019-01-25T05:45:17.780Z,62.00
2019-01-25T05:47:45.555Z,62.08
2019-01-25T05:50:13.762Z,61.88
2019-01-25T05:52:41.581Z,58.50
2019-01-25T05:55:14.945Z,64.20
2019-01-25T05:57:42.905Z,63.00
2019-01-25T06:00:11.293Z,62.93
2019-01-25T06:02:39.387Z,63.87
2019-01-25T06:05:07.429Z,76.05
2019-01-25T06:07:35.193Z,62.55
2019-01-25T06:10:04.289Z,90.87
2019-01-25T06:12:32.039Z,155.40
2019-01-25T06:14:59.844Z,92.08
2019-01-25T06:17:27.752Z,75.62
2019-01-25T06:19:55.529Z,60.88
2019-01-25T06:22:23.284Z,69.40
2019-01-25T06:24:51.066Z,68.02
2019-01-25T06:27:18.848Z,62.58
2019-01-25T06:29:46.918Z,69.67
2019-01-25T06:32:14.952Z,55.17
2019-01-25T06:34:42.908Z,63.78
2019-01-25T06:37:10.686Z,62.00
2019-01-25T06:39:38.269Z,64.87
2019-01-25T06:42:06.028Z,63.68
2019-01-25T06:44:33.712Z,60.17
2019-01-25T06:47:01.416Z,62.95
2019-01-25T06:49:29.556Z,64.72
2019-01-25T06:51:57.298Z,64.58
2019-01-25T06:54:25.296Z,61.85
2019-01-25T06:56:52.904Z,65.35
2019-01-25T06:59:23.929Z,65.15
2019-01-25T07:02:17.547Z,64.42
2019-01-25T07:04:45.219Z,63.48
2019-01-25T07:07:22.129Z,61.60
2019-01-25T07:09:49.927Z,62.25
2019-01-25T07:12:18.076Z,65.83
2019-01-25T07:14:45.556Z,64.27
2019-01-25T07:17:13.209Z,64.32
2019-01-25T07:19:40.890Z,66.57
2019-01-25T07:22:08.648Z,69.30
2019-01-25T07:24:36.437Z,68.52
2019-01-25T07:27:04.240Z,59.55
2019-01-25T07:29:31.929Z,69.03
2019-01-25T07:31:59.820Z,79.85
2019-01-25T07:34:27.753Z,69.85
2019-01-25T07:36:55.645Z,70.55
2019-01-25T07:39:26.974Z,71.53
2019-01-25T07:41:59.639Z,78.62
2019-01-25T07:44:25.605Z,67.35
2019-01-25T07:46:53.491Z,69.30
2019-01-25T07:49:21.264Z,63.17
2019-01-25T07:51:49.318Z,65.52
2019-01-25T07:54:17.087Z,69.65
2019-01-25T07:56:44.875Z,74.58
2019-01-25T07:59:12.700Z,77.00
2019-01-25T08:01:40.815Z,82.10
2019-01-25T08:04:08.695Z,80.38
2019-01-25T08:06:36.705Z,82.17
2019-01-25T08:09:08.141Z,80.67
2019-01-25T08:11:35.833Z,85.60
2019-01-25T08:14:04.756Z,84.10
2019-01-25T08:16:32.581Z,80.60
2019-01-25T08:19:00.216Z,77.87
2019-01-25T08:21:28.000Z,85.72
2019-01-25T08:23:56.020Z,79.55
2019-01-25T08:26:24.056Z,80.50
2019-01-25T08:28:52.105Z,80.45
2019-01-25T08:31:20.406Z,87.33
2019-01-25T08:33:48.374Z,75.37
2019-01-25T08:36:16.320Z,79.92
2019-01-25T08:38:44.109Z,79.47
2019-01-25T08:41:11.818Z,90.72
2019-01-25T08:43:39.467Z,89.22
2019-01-25T08:46:07.277Z,87.25
2019-01-25T08:48:35.049Z,86.00
2019-01-25T08:51:03.090Z,85.22
2019-01-25T08:53:31.125Z,87.88
2019-01-25T08:55:59.227Z,82.00
2019-01-25T08:58:27.010Z,78.72
2019-01-25T09:00:54.764Z,81.53
2019-01-25T09:03:22.444Z,76.70
2019-01-25T09:05:50.517Z,82.42
2019-01-25T09:08:18.540Z,84.52
2019-01-25T09:10:46.398Z,82.70
2019-01-25T09:13:14.271Z,88.42
2019-01-25T09:15:42.232Z,90.38
2019-01-25T09:18:10.120Z,82.50
2019-01-25T09:20:38.170Z,92.10
2019-01-25T09:23:05.926Z,86.95
2019-01-25T09:25:34.264Z,87.47
2019-01-25T09:28:02.044Z,89.83
2019-01-25T09:30:29.807Z,85.75
2019-01-25T09:32:57.679Z,87.97
2019-01-25T09:35:25.431Z,87.50
2019-01-25T09:37:53.617Z,90.55
2019-01-25T09:40:22.744Z,90.12
2019-01-25T09:42:51.190Z,87.57
2019-01-25T09:45:19.424Z,92.10
2019-01-25T09:47:47.349Z,86.05
2019-01-25T09:50:17.345Z,84.03
2019-01-25T09:52:45.029Z,92.78
2019-01-25T09:55:18.727Z,84.15
2019-01-25T09:57:47.054Z,83.37
2019-01-25T10:00:23.697Z,85.22
2019-01-25T10:02:51.478Z,90.67
2019-01-25T10:05:19.273Z,89.10
2019-01-25T10:07:47.080Z,89.20
2019-01-25T10:10:14.867Z,82.80
2019-01-25T10:12:43.445Z,92.90
2019-01-25T10:15:15.665Z,92.02
2019-01-25T10:17:43.343Z,89.32
2019-01-25T10:20:11.220Z,91.87
2019-01-25T10:22:39.180Z,89.42
2019-01-25T10:25:08.258Z,88.92
2019-01-25T10:27:36.044Z,88.65
2019-01-25T10:30:07.385Z,92.95
2019-01-25T10:32:35.539Z,99.35
2019-01-25T10:35:05.271Z,93.80
2019-01-25T10:37:33.061Z,89.30
2019-01-25T10:40:00.519Z,85.72
2019-01-25T10:42:28.577Z,96.15
2019-01-25T10:44:56.275Z,86.35
2019-01-25T10:47:25.752Z,94.52
2019-01-25T10:49:53.309Z,95.70
2019-01-25T10:52:21.145Z,83.58
2019-01-25T10:54:49.071Z,79.80
2019-01-25T10:57:16.856Z,84.00
2019-01-25T10:59:44.632Z,87.33
2019-01-25T11:02:12.685Z,78.72
2019-01-25T11:04:40.342Z,84.58
2019-01-25T11:07:07.960Z,79.35
2019-01-25T11:09:38.114Z,70.62
2019-01-25T11:12:05.550Z,69.87
2019-01-25T11:14:33.306Z,69.05
2019-01-25T11:17:01.100Z,68.25
2019-01-25T11:19:28.852Z,70.50
2019-01-25T11:21:56.442Z,48.73
2019-01-25T11:24:24.128Z,67.20
2019-01-25T11:26:52.029Z,52.35
2019-01-25T11:29:19.913Z,56.25
2019-01-25T11:31:47.839Z,66.20
2019-01-25T11:34:15.413Z,67.55
2019-01-25T11:36:43.719Z,41.85
2019-01-25T11:39:11.888Z,55.67
2019-01-25T11:41:39.838Z,60.98
2019-01-25T11:44:07.537Z,55.08
2019-01-25T11:46:35.198Z,34.85
2019-01-25T11:49:03.185Z,64.90
2019-01-25T11:51:31.936Z,58.87
2019-01-25T11:53:59.632Z,63.52
2019-01-25T11:56:27.389Z,49.08
2019-01-25T11:58:55.495Z,52.53
2019-01-25T12:01:23.540Z,54.48
2019-01-25T12:03:51.791Z,55.60
2019-01-25T12:06:19.647Z,55.48
2019-01-25T12:08:47.712Z,62.17
2019-01-25T12:11:15.390Z,58.28
2019-01-25T12:13:42.996Z,47.85
2019-01-25T12:16:11.764Z,51.37
2019-01-25T12:18:39.491Z,46.28
2019-01-25T12:21:07.240Z,51.45
2019-01-25T12:23:35.036Z,55.25
2019-01-25T12:26:02.822Z,52.75
2019-01-25T12:28:30.911Z,62.80
2019-01-25T12:30:58.843Z,60.12
2019-01-25T12:33:26.448Z,58.87
2019-01-25T12:35:54.198Z,58.28
2019-01-25T12:38:21.968Z,54.93
2019-01-25T12:40:49.741Z,51.85
2019-01-25T12:43:23.871Z,47.78
2019-01-25T12:45:50.169Z,55.52
2019-01-25T12:48:16.859Z,43.38
2019-01-25T12:51:03.279Z,43.52
2019-01-25T12:53:32.131Z,53.83
2019-01-25T12:55:59.875Z,52.53
2019-01-25T12:58:27.732Z,47.17
2019-01-25T13:00:55.490Z,42.88
2019-01-25T13:03:23.355Z,42.65
2019-01-25T13:05:51.640Z,50.95
2019-01-25T13:08:19.372Z,30.60
2019-01-25T13:10:47.126Z,34.23
2019-01-25T13:13:14.933Z,35.43
2019-01-25T13:15:42.692Z,25.23
2019-01-25T13:18:10.513Z,32.13
2019-01-25T13:20:39.613Z,27.70
2019-01-25T13:23:07.433Z,32.63
2019-01-25T13:25:35.235Z,31.85
2019-01-25T13:28:03.084Z,34.55
2019-01-25T13:30:30.972Z,26.57
2019-01-25T13:32:59.726Z,40.12
2019-01-25T13:35:27.822Z,27.95
2019-01-25T13:37:55.583Z,19.92
2019-01-25T13:40:23.788Z,30.80
2019-01-25T13:42:52.018Z,35.58
2019-01-25T13:45:21.787Z,25.80
2019-01-25T13:47:49.765Z,29.15
2019-01-25T13:50:20.668Z,36.28
2019-01-25T13:52:48.338Z,41.92
2019-01-25T13:55:17.080Z,23.87
2019-01-25T13:57:44.954Z,30.95
2019-01-25T14:00:22.970Z,30.70
2019-01-25T14:02:51.998Z,32.78
2019-01-25T14:05:19.929Z,30.45
2019-01-25T14:07:47.785Z,32.30
2019-01-25T14:10:20.103Z,28.85
2019-01-25T14:12:48.135Z,28.50
2019-01-25T14:15:15.967Z,21.93
2019-01-25T14:17:43.769Z,33.65
2019-01-25T14:20:22.948Z,14.23
2019-01-25T14:22:44.972Z,29.48
2019-01-25T14:25:12.956Z,27.35
2019-01-25T14:27:40.736Z,22.30
2019-01-25T14:30:17.693Z,32.13
2019-01-25T14:32:45.453Z,28.95
2019-01-25T14:35:13.160Z,17.12
2019-01-25T14:37:41.225Z,23.57
2019-01-25T14:40:09.269Z,24.35
2019-01-25T14:42:36.939Z,21.25
2019-01-25T14:45:05.513Z,19.95
2019-01-25T14:47:33.512Z,25.43
2019-01-25T14:50:01.580Z,25.70
2019-01-25T14:52:29.709Z,30.85
2019-01-25T14:54:57.429Z,30.75
2019-01-25T14:57:25.260Z,23.73
2019-01-25T14:59:52.924Z,29.72
2019-01-25T15:02:20.953Z,26.85
2019-01-25T15:04:48.776Z,31.68
2019-01-25T15:07:16.480Z,26.97
2019-01-25T15:09:44.088Z,31.27
2019-01-25T15:12:11.862Z,29.70
2019-01-25T15:14:39.572Z,14.85
2019-01-25T15:17:07.360Z,28.17
2019-01-25T15:19:35.148Z,28.27
2019-01-25T15:22:02.896Z,30.40
2019-01-25T15:24:30.620Z,29.25
2019-01-25T15:26:58.448Z,34.05
2019-01-25T15:29:27.157Z,33.13
2019-01-25T15:31:55.804Z,28.75
2019-01-25T15:34:24.595Z,24.92
2019-01-25T15:36:52.167Z,32.45
2019-01-25T15:39:19.969Z,33.63
2019-01-25T15:41:47.716Z,26.52
2019-01-25T15:44:15.178Z,31.20
2019-01-25T15:46:42.914Z,30.48
2019-01-25T15:49:10.672Z,31.90
2019-01-25T15:51:38.544Z,30.10
2019-01-25T15:54:06.204Z,27.25
2019-01-25T15:56:34.565Z,18.32
2019-01-25T15:59:03.611Z,28.80
2019-01-25T16:01:31.849Z,25.72
2019-01-25T16:04:00.011Z,25.90
2019-01-25T16:06:27.615Z,28.60
2019-01-25T16:08:55.639Z,14.25
2019-01-25T16:11:23.430Z,28.42
2019-01-25T16:13:51.328Z,23.40
2019-01-25T16:16:19.079Z,28.20
2019-01-25T16:18:47.007Z,27.07
2019-01-25T16:21:15.087Z,32.63
2019-01-25T16:23:42.857Z,26.27
2019-01-25T16:26:10.661Z,28.17
2019-01-25T16:28:38.333Z,34.08
2019-01-25T16:31:06.171Z,27.90
2019-01-25T16:33:33.949Z,24.85
2019-01-25T16:36:01.736Z,30.92
2019-01-25T16:38:29.507Z,26.50
2019-01-25T16:40:57.288Z,23.02
2019-01-25T16:43:24.973Z,19.48
2019-01-25T16:45:53.320Z,31.80
2019-01-25T16:48:21.048Z,20.35
2019-01-25T16:50:48.952Z,20.40
2019-01-25T16:53:16.696Z,25.52
2019-01-25T16:55:44.817Z,32.45
2019-01-25T16:58:15.333Z,33.48
2019-01-25T17:00:47.614Z,21.82
2019-01-25T17:03:15.877Z,31.48
2019-01-25T17:05:43.664Z,34.27
2019-01-25T17:08:11.748Z,32.38
2019-01-25T17:10:41.107Z,35.30
2019-01-25T17:13:09.056Z,24.67
2019-01-25T17:15:36.903Z,33.23
2019-01-25T17:18:05.482Z,13.48
2019-01-25T17:23:32.545Z,30.23
2019-01-25T17:26:03.791Z,31.48
2019-01-25T17:28:34.968Z,34.63
2019-01-25T17:31:06.233Z,23.30
2019-01-25T17:33:37.415Z,31.80
2019-01-25T17:36:08.984Z,35.23
2019-01-25T17:38:40.226Z,33.15
2019-01-25T17:41:11.812Z,39.45
2019-01-25T17:43:43.061Z,29.67
2019-01-25T17:46:14.435Z,28.90
2019-01-25T17:48:45.689Z,33.63
2019-01-25T17:51:17.083Z,30.50
2019-01-25T17:53:48.736Z,31.77
2019-01-25T17:56:21.112Z,34.55
2019-01-25T17:58:52.287Z,33.40
2019-01-25T18:01:24.008Z,30.77
2019-01-25T18:03:55.275Z,29.50
2019-01-25T18:06:26.612Z,34.18
2019-01-25T18:08:57.866Z,27.50
2019-01-25T18:11:29.388Z,29.55
2019-01-25T18:14:00.687Z,28.40
2019-01-25T18:16:31.972Z,32.67
2019-01-25T18:19:03.436Z,22.00
2019-01-25T18:21:35.084Z,24.45
2019-01-25T18:24:06.509Z,28.32
2019-01-25T18:26:38.200Z,25.97
2019-01-25T18:29:58.243Z,27.67
2019-01-25T18:32:29.644Z,27.50
2019-01-25T18:35:01.177Z,25.77
2019-01-25T18:37:33.798Z,27.00
2019-01-25T18:40:08.854Z,22.52
2019-01-25T18:42:40.107Z,29.87
2019-01-25T18:45:11.369Z,22.13
2019-01-25T18:47:43.068Z,24.37
2019-01-25T18:50:15.211Z,22.05
2019-01-25T18:52:49.743Z,25.12
2019-01-25T18:55:22.502Z,22.22
2019-01-25T18:57:54.160Z,25.35
2019-01-25T19:00:26.090Z,26.40
2019-01-25T19:02:57.612Z,26.48
2019-01-25T19:05:29.258Z,26.45
2019-01-25T19:08:00.933Z,28.02
2019-01-25T19:10:32.466Z,24.15
2019-01-25T19:13:03.748Z,24.95
2019-01-25T19:15:35.039Z,28.32
2019-01-25T19:18:06.359Z,27.22
2019-01-25T19:20:37.935Z,25.45
2019-01-25T19:23:09.311Z,23.45
2019-01-25T19:25:40.573Z,20.82
2019-01-25T19:28:12.282Z,24.30
2019-01-25T19:30:45.769Z,24.90
2019-01-25T19:33:17.532Z,23.83
2019-01-25T19:35:48.776Z,29.98
2019-01-25T19:38:22.532Z,29.52
2019-01-25T19:40:53.894Z,22.02
2019-01-25T19:43:25.408Z,26.02
2019-01-25T19:45:57.393Z,29.20
2019-01-25T19:48:29.413Z,24.82
2019-01-25T19:51:01.482Z,26.80
2019-01-25T19:53:33.143Z,27.30
2019-01-25T19:56:05.185Z,25.57
2019-01-25T19:58:36.651Z,31.07
2019-01-25T20:01:07.901Z,32.65
2019-01-25T20:03:39.452Z,30.00
2019-01-25T20:06:10.646Z,31.87
2019-01-25T20:08:43.286Z,28.05
2019-01-25T20:11:14.657Z,33.83
2019-01-25T20:13:46.376Z,28.65
2019-01-25T20:16:18.024Z,35.63
2019-01-25T20:18:50.260Z,34.25
2019-01-25T20:21:21.846Z,30.80
2019-01-25T20:23:53.003Z,32.40
2019-01-25T20:26:24.389Z,29.10
2019-01-25T20:28:55.617Z,30.88
2019-01-25T20:31:27.441Z,31.48
2019-01-25T20:33:59.101Z,35.10
2019-01-25T20:36:30.460Z,31.70
2019-01-25T20:39:02.402Z,35.15
2019-01-25T20:41:35.570Z,39.65
2019-01-25T20:44:07.149Z,36.45
2019-01-25T20:46:39.318Z,37.53
2019-01-25T20:49:10.959Z,34.50
2019-01-25T20:51:45.154Z,35.92
2019-01-25T20:54:16.722Z,37.58
2019-01-25T20:56:47.911Z,32.90
2019-01-25T20:59:19.067Z,38.10
2019-01-25T21:01:50.204Z,36.30
2019-01-25T21:04:21.422Z,30.10
2019-01-25T21:06:52.964Z,38.28
2019-01-25T21:09:24.249Z,35.28
2019-01-25T21:11:55.360Z,42.62
2019-01-25T21:14:27.837Z,32.98
2019-01-25T21:16:59.271Z,42.23
2019-01-25T21:19:30.762Z,39.63
2019-01-25T21:22:02.092Z,44.70
2019-01-25T21:24:33.303Z,37.20
2019-01-25T21:27:04.987Z,42.05
2019-01-25T21:29:36.513Z,40.67
2019-01-25T21:32:07.762Z,45.38
2019-01-25T21:34:38.984Z,49.10
2019-01-25T21:37:10.275Z,43.28
2019-01-25T21:39:42.126Z,50.23
2019-01-25T21:42:13.308Z,46.13
2019-01-25T21:44:45.012Z,47.35
2019-01-25T21:47:16.256Z,48.45
2019-01-25T21:49:47.468Z,39.45
2019-01-25T21:52:18.737Z,41.25
2019-01-25T21:54:50.311Z,50.10
2019-01-25T21:57:21.560Z,44.98
2019-01-25T21:59:53.111Z,47.27
2019-01-25T22:02:24.365Z,44.42
2019-01-25T22:04:56.327Z,42.50
2019-01-25T22:07:27.515Z,44.08
2019-01-25T22:09:59.024Z,44.13
2019-01-25T22:12:30.573Z,42.38
2019-01-25T22:15:02.277Z,45.48
2019-01-25T22:17:33.534Z,43.38
2019-01-25T22:20:07.993Z,36.42
2019-01-25T22:22:39.260Z,40.52
2019-01-25T22:25:11.200Z,39.75
2019-01-25T22:27:42.859Z,40.38
2019-01-25T22:30:18.714Z,36.17
2019-01-25T22:32:49.903Z,33.70
2019-01-25T22:35:21.574Z,34.30
2019-01-25T22:37:53.320Z,33.00
2019-01-25T22:40:30.392Z,28.42
2019-01-25T22:43:01.679Z,31.17
2019-01-25T22:45:33.839Z,30.27
2019-01-25T22:48:06.349Z,35.13
2019-01-25T22:50:38.929Z,36.23
2019-01-25T22:53:10.372Z,34.65
2019-01-25T22:55:41.671Z,32.70
2019-01-25T22:58:12.904Z,30.80
2019-01-25T23:01:22.670Z,31.40
2019-01-25T23:04:24.255Z,30.95
2019-01-25T23:07:07.982Z,24.87
2019-01-25T23:09:53.068Z,36.10
2019-01-25T23:12:24.320Z,28.15
2019-01-25T23:14:55.876Z,24.82
2019-01-25T23:17:27.159Z,26.97
2019-01-25T23:19:58.483Z,25.50
2019-01-25T23:22:31.567Z,30.85
2019-01-25T23:25:03.972Z,32.80
2019-01-25T23:27:35.155Z,25.23
2019-01-25T23:30:12.173Z,33.02
2019-01-25T23:32:43.792Z,25.45
2019-01-25T23:35:15.448Z,31.48
2019-01-25T23:37:46.624Z,14.83
2019-01-25T23:40:17.941Z,27.90
2019-01-25T23:42:49.118Z,29.32
2019-01-25T23:45:20.332Z,29.60
2019-01-25T23:47:51.609Z,34.13
2019-01-25T23:50:24.316Z,26.02
2019-01-25T23:52:55.510Z,31.40
2019-01-25T23:55:27.733Z,28.52
2019-01-25T23:57:59.419Z,21.68
